Scroll down
FLIGHT INFORMATION
Delta Air Lines

DAL2201

At Arrival Gate

KDTW
 KMDW
DATE: 2021-01-02
GATE: 
GATE DEPARTURE: 00:09
TAKEOFF: 00:21
DATE: 2021-01-02
GATE: G1
LANDING: 01:23
GATE ARRIVAL: 01:28
FLIGHT DATA
Speed: 
454 kts
Altitude: 
26,002 ft
Stage Length: 
197.9 nm
Block Time: 
1.2 hrs
Flight Time: 
1 hrs
Fuel Used: 
6,802 lb
Cleared Route: KDTW ZEGBI LEROY BAGEL KMDW
TRACK DATA
50,000 ft 1,000 kts
AIRCRAFT INFO AND CUMULATIVE STATS
Aircraft Type: 
B739ERSSW
Registration: 
SELCAL: 
MSN/LN: 
64885 / 7402
Operator: 
Total Flights: 
1
Total Block Time: 
1.2 hrs
Total Flight Time: 
1 hrs
Total Fuel Used: 
6,802 lb
DATALINK LOG | Newest first | Current as of: 2021-11-30 22:06:29
LABEL SEQUENCE CONTENT Dn/Up
QD311501:28 9.1▼ Dn
QC251001:23▼ Dn
2U4900KMDW 020139Z 02010KT 1 3/4SM -SN BR BKN006 OVC013 01/M01 A2981 RMK AO2 DZE21SNB13 P0002 T00111006▲ Up
2S5040KMDW▼ Dn
GA5050GATE G1▲ Up
GR5039KMDW 01:19 MAAS 00 YP/UM 00/02 WCHR/S/C 00/00/00 HI-VAL NO DIPL/VIP NO▼ Dn
QB231300:21▼ Dn
QA110200:09 16▼ Dn
A30708CLEARED TO KMDW VIA CCOBB2 ZEGBI LEROY BAGEL PANGG3. SQUAWK 4332.▲ Up
Q00557[LINK ACK]▲ Up
Q00557[LINK TEST]▼ Dn


AIRCRAFT HISTORY
FLIGHT DATE FLIGHT NO. ORIGIN DESTINATION CLEARED ROUTE BLOCK TIME FLIGHT TIME FUEL USED PILOT
2021-01-02DAL2201KDTW KMDW KDTW ZEGBI LEROY BAGEL KMDW1.2 hrs1 hrs6,802 lbRoberto Stopnicki